Time;durP1;ratioP1;P1;durP2;ratioP2;P2;SDS_P1;SDS_P2;PMS_P1;PMS_P2;Temp;Humidity;BMP_temperature;BMP_pressure;BME280_temperature;BME280_humidity;BME280_pressure;Samples;Min_cycle;Max_cycle;Signal;HPM_P1;HPM_P2
2022/06/09 00:02:04;;;;;;;2.08;0.20;;;;;;;18.99;84.04;99908.75;4806190;29;20055;-73
2022/06/09 00:04:36;;;;;;;2.58;0.22;;;;;;;18.85;85.19;99909.97;4806312;29;20070;-74
2022/06/09 00:07:15;;;;;;;0.82;0.28;;;;;;;18.72;85.64;99917.53;4805966;29;20051;-73
2022/06/09 00:09:53;;;;;;;0.55;0.38;;;;;;;18.74;86.23;99915.22;4794843;29;20403;-74
2022/06/09 00:12:22;;;;;;;2.28;0.30;;;;;;;18.78;85.17;99915.31;4791022;29;20063;-73
2022/06/09 00:14:51;;;;;;;1.23;0.30;;;;;;;18.98;84.22;99907.97;4801439;29;20059;-73
2022/06/09 00:17:18;;;;;;;0.30;0.15;;;;;;;19.08;84.11;99917.78;4806665;29;20407;-74
2022/06/09 00:19:46;;;;;;;0.88;0.15;;;;;;;19.07;83.67;99911.41;4806605;29;20051;-74
2022/06/09 00:22:14;;;;;;;0.50;0.30;;;;;;;19.02;83.23;99911.63;4806586;29;20042;-74
2022/06/09 00:24:42;;;;;;;3.65;0.47;;;;;;;18.94;83.45;99907.88;4806693;29;20491;-74
2022/06/09 00:27:10;;;;;;;0.35;0.32;;;;;;;19.15;83.30;99909.63;4805033;29;20054;-74
2022/06/09 00:29:39;;;;;;;2.83;0.20;;;;;;;19.15;83.13;99908.81;4805336;29;20418;-74
2022/06/09 00:32:08;;;;;;;0.95;0.30;;;;;;;19.06;84.45;99915.34;4805844;29;20059;-73
2022/06/09 00:34:36;;;;;;;0.22;0.17;;;;;;;19.12;82.64;99917.84;4805642;29;20061;-74
2022/06/09 00:37:04;;;;;;;0.35;0.30;;;;;;;19.04;82.71;99917.66;4806269;29;20059;-74
2022/06/09 00:39:32;;;;;;;0.30;0.30;;;;;;;19.12;82.70;99926.19;4806771;29;20058;-74
2022/06/09 00:42:01;;;;;;;0.10;0.10;;;;;;;18.98;83.32;99924.59;4805845;29;20066;-74
2022/06/09 00:44:30;;;;;;;0.75;0.52;;;;;;;18.92;84.78;99921.25;4806268;29;20062;-74
2022/06/09 00:47:05;;;;;;;0.80;0.30;;;;;;;18.81;86.77;99928.47;4802998;29;20062;-75
2022/06/09 00:50:13;;;;;;;0.32;0.20;;;;;;;18.79;86.15;99928.84;4804255;29;20061;-74
2022/06/09 00:52:47;;;;;;;1.17;0.60;;;;;;;18.82;85.67;99927.31;4805521;29;20046;-74
2022/06/09 00:55:19;;;;;;;0.35;0.30;;;;;;;18.87;85.99;99917.94;4806101;29;20043;-74
2022/06/09 00:57:52;;;;;;;0.30;0.30;;;;;;;18.75;88.25;99929.88;4806015;29;20059;-74
2022/06/09 01:00:28;;;;;;;0.30;0.30;;;;;;;18.63;86.82;99923.22;4804657;29;20055;-74
2022/06/09 01:02:58;;;;;;;0.63;0.43;;;;;;;18.69;87.14;99934.06;4805804;29;20050;-73
2022/06/09 01:05:30;;;;;;;4.90;1.67;;;;;;;18.46;97.53;99931.78;4805793;29;20051;-76
2022/06/09 01:08:02;;;;;;;4.43;0.73;;;;;;;18.13;94.28;99912.25;4805898;29;20057;-76
2022/06/09 01:10:31;;;;;;;1.17;0.55;;;;;;;18.10;96.42;99914.91;4793150;29;20050;-77
2022/06/09 01:13:02;;;;;;;1.02;0.68;;;;;;;18.10;95.34;99912.94;4805675;29;20059;-76
2022/06/09 01:15:43;;;;;;;1.25;0.65;;;;;;;17.99;99.67;99926.41;4805621;29;20411;-77
2022/06/09 01:18:17;;;;;;;10.73;2.15;;;;;;;18.11;100.00;99933.13;4801414;29;20047;-76
2022/06/09 01:21:17;;;;;;;;;;;;;;;18.08;99.38;99928.31;4794189;29;20782;-76
2022/06/09 01:24:10;;;;;;;1.25;0.63;;;;;;;18.07;100.00;99926.66;4769433;29;19944;-76
2022/06/09 01:26:50;;;;;;;1.98;0.68;;;;;;;18.03;100.00;99920.19;4805047;29;20061;-76
2022/06/09 01:29:46;;;;;;;1.98;1.10;;;;;;;18.06;100.00;99913.97;4805139;29;20518;-77
2022/06/09 01:32:20;;;;;;;2.78;1.20;;;;;;;17.94;100.00;99918.34;4803239;29;20058;-77
2022/06/09 01:34:54;;;;;;;1.73;1.10;;;;;;;18.06;100.00;99919.50;4805577;29;20047;-76
2022/06/09 01:37:33;;;;;;;;;;;;;;;18.07;100.00;99923.88;4805792;29;20066;-76
2022/06/09 01:40:04;;;;;;;1.30;0.65;;;;;;;18.04;100.00;99917.06;4805576;29;19925;-77
2022/06/09 01:42:34;;;;;;;9.35;0.98;;;;;;;18.07;100.00;99915.59;4803887;29;20050;-76
2022/06/09 01:45:37;;;;;;;2.30;0.63;;;;;;;18.07;99.58;99912.81;4805312;29;20059;-76
2022/06/09 01:48:07;;;;;;;0.60;0.60;;;;;;;18.14;94.93;99910.28;4782956;29;20494;-76
2022/06/09 01:50:59;;;;;;;0.63;0.47;;;;;;;18.37;95.82;99913.38;4805264;29;20051;-76
2022/06/09 01:53:41;;;;;;;2.15;0.52;;;;;;;18.23;100.00;99908.19;4795909;29;20050;-76
2022/06/09 01:56:19;;;;;;;0.65;0.52;;;;;;;18.12;100.00;99901.50;4804042;29;20046;-76
2022/06/09 01:59:03;;;;;;;1.08;0.60;;;;;;;18.22;99.87;99912.13;4805723;29;20414;-76
2022/06/09 02:01:36;;;;;;;1.45;0.88;;;;;;;18.42;100.00;99908.75;4804935;29;20054;-75
2022/06/09 02:04:08;;;;;;;0.40;0.40;;;;;;;18.83;94.14;99906.75;4804917;29;20126;-75
2022/06/09 02:06:36;;;;;;;0.90;0.60;;;;;;;18.78;100.00;99904.25;4804816;29;20054;-76
2022/06/09 02:09:05;;;;;;;0.47;0.43;;;;;;;18.63;100.00;99900.25;4797926;29;20059;-75
2022/06/09 02:11:32;;;;;;;0.88;0.40;;;;;;;18.46;100.00;99901.31;4800024;29;20761;-76
2022/06/09 02:14:01;;;;;;;1.15;0.50;;;;;;;18.26;100.00;99896.44;4805397;29;20062;-76
2022/06/09 02:16:29;;;;;;;1.25;0.77;;;;;;;18.15;100.00;99898.06;4804913;29;20499;-75
2022/06/09 02:18:57;;;;;;;1.50;0.40;;;;;;;18.14;100.00;99913.06;4805027;29;20050;-76
2022/06/09 02:21:33;;;;;;;2.15;0.82;;;;;;;18.07;95.87;99916.41;4804892;29;20114;-76
2022/06/09 02:24:02;;;;;;;1.15;0.77;;;;;;;18.19;96.43;99917.56;4806945;29;20057;-76
2022/06/09 02:26:30;;;;;;;0.45;0.35;;;;;;;18.14;97.54;99904.75;4808678;29;20529;-76
2022/06/09 02:28:58;;;;;;;2.50;0.77;;;;;;;18.09;94.69;99908.56;4808347;29;20054;-75
2022/06/09 02:31:26;;;;;;;0.63;0.63;;;;;;;18.04;95.92;99910.72;4808769;29;20054;-76
2022/06/09 02:33:55;;;;;;;2.15;0.50;;;;;;;18.06;97.21;99908.44;4807900;29;20545;-76
2022/06/09 02:36:23;;;;;;;2.35;0.80;;;;;;;18.08;97.84;99912.47;4807186;29;20066;-76
2022/06/09 02:38:52;;;;;;;1.13;0.70;;;;;;;18.12;98.27;99904.28;4808184;29;20051;-75
2022/06/09 02:41:21;;;;;;;1.30;0.60;;;;;;;18.09;99.30;99902.22;4808713;29;20059;-75
2022/06/09 02:43:49;;;;;;;1.20;0.85;;;;;;;17.97;98.54;99901.03;4808429;29;20499;-75
2022/06/09 02:46:17;;;;;;;0.85;0.63;;;;;;;17.96;97.47;99891.13;4808271;29;20096;-75
2022/06/09 02:48:45;;;;;;;1.27;0.80;;;;;;;17.96;100.00;99891.13;4802928;29;20058;-75
2022/06/09 02:51:22;;;;;;;2.53;1.35;;;;;;;17.89;97.48;99899.19;4808042;29;20050;-75
2022/06/09 02:53:50;;;;;;;4.15;1.02;;;;;;;17.85;99.19;99889.97;4807868;29;20066;-75
2022/06/09 02:56:19;;;;;;;0.80;0.80;;;;;;;17.83;99.61;99892.28;4808050;29;20403;-75
2022/06/09 02:58:47;;;;;;;0.98;0.88;;;;;;;17.68;100.00;99891.81;4808295;29;20063;-75
2022/06/09 03:01:15;;;;;;;2.28;1.15;;;;;;;17.63;100.00;99880.97;4807551;29;20055;-74
2022/06/09 03:03:43;;;;;;;1.45;1.23;;;;;;;17.65;98.60;99884.19;4808196;29;20411;-75
2022/06/09 03:06:11;;;;;;;2.63;1.38;;;;;;;17.70;99.53;99883.97;4808001;29;20046;-75
2022/06/09 03:08:39;;;;;;;1.95;0.95;;;;;;;17.71;99.79;99888.34;4803676;29;20380;-75
2022/06/09 03:11:10;;;;;;;1.20;0.98;;;;;;;17.65;99.33;99881.44;4799552;29;20050;-75
2022/06/09 03:13:40;;;;;;;2.65;1.13;;;;;;;17.67;99.70;99876.38;4807687;29;20050;-75
2022/06/09 03:16:10;;;;;;;1.92;0.80;;;;;;;17.60;100.00;99876.16;4807354;29;20055;-75
2022/06/09 03:18:38;;;;;;;0.85;0.82;;;;;;;17.46;100.00;99877.28;4807755;29;20062;-74
2022/06/09 03:21:06;;;;;;;1.25;0.88;;;;;;;17.27;100.00;99890.84;4807759;29;20043;-74
2022/06/09 03:23:34;;;;;;;1.63;1.25;;;;;;;17.35;100.00;99889.13;4808081;29;20061;-75
2022/06/09 03:26:02;;;;;;;1.40;1.10;;;;;;;17.29;100.00;99883.81;4807791;29;20513;-75
2022/06/09 03:28:30;;;;;;;1.85;1.35;;;;;;;17.35;100.00;99889.94;4807591;29;20047;-74
2022/06/09 03:30:59;;;;;;;2.33;1.10;;;;;;;17.29;100.00;99883.00;4807601;29;20081;-74
2022/06/09 03:33:28;;;;;;;1.50;1.38;;;;;;;17.36;100.00;99890.75;4808003;29;20066;-74
2022/06/09 03:35:55;;;;;;;2.35;1.17;;;;;;;17.34;100.00;99891.09;4806125;29;20054;-74
2022/06/09 03:38:24;;;;;;;3.25;1.17;;;;;;;17.32;100.00;99882.34;4806813;29;20070;-75
2022/06/09 03:40:52;;;;;;;4.13;1.55;;;;;;;17.41;100.00;99893.28;4806901;29;20050;-74
2022/06/09 03:43:20;;;;;;;1.98;1.33;;;;;;;17.25;100.00;99898.69;4806604;29;20059;-74
2022/06/09 03:45:50;;;;;;;0.85;0.85;;;;;;;17.22;100.00;99888.31;4811074;29;20054;-74
2022/06/09 03:48:21;;;;;;;1.45;1.02;;;;;;;17.21;100.00;99892.22;4801396;29;20048;-74
2022/06/09 03:50:49;;;;;;;4.95;1.38;;;;;;;17.19;100.00;99898.91;4796637;29;20615;-74
2022/06/09 03:53:16;;;;;;;3.53;1.60;;;;;;;17.14;100.00;99899.13;4792687;29;20419;-75
2022/06/09 03:55:44;;;;;;;3.15;1.75;;;;;;;17.14;100.00;99899.13;4803395;29;20051;-75
2022/06/09 03:58:13;;;;;;;3.05;1.20;;;;;;;17.10;100.00;99892.66;4792868;29;20408;-74
2022/06/09 04:00:41;;;;;;;1.85;1.13;;;;;;;17.29;100.00;99910.66;4791930;29;20081;-74
2022/06/09 04:03:09;;;;;;;2.00;1.30;;;;;;;17.27;100.00;99912.97;4788509;29;20063;-74
2022/06/09 04:05:37;;;;;;;4.57;1.20;;;;;;;17.21;100.00;99915.16;4788819;29;20051;-74
2022/06/09 04:08:06;;;;;;;1.48;1.38;;;;;;;17.13;100.00;99908.56;4788533;29;20062;-74
2022/06/09 04:10:34;;;;;;;1.27;1.10;;;;;;;17.12;100.00;99906.13;4794215;29;20062;-74
2022/06/09 04:13:03;;;;;;;1.55;1.00;;;;;;;17.20;100.00;99910.75;4806954;29;20058;-74
2022/06/09 04:15:31;;;;;;;1.13;0.80;;;;;;;17.16;100.00;99902.34;4805118;29;20046;-73
2022/06/09 04:17:59;;;;;;;2.50;1.13;;;;;;;17.16;100.00;99913.41;4799056;29;20054;-74
2022/06/09 04:20:30;;;;;;;1.08;0.80;;;;;;;17.15;100.00;99905.44;4806583;29;20063;-73
2022/06/09 04:22:57;;;;;;;1.13;0.80;;;;;;;17.24;100.00;99908.09;4805644;29;20050;-73
2022/06/09 04:25:25;;;;;;;2.38;0.75;;;;;;;17.17;100.00;99912.25;4806462;29;20406;-73
2022/06/09 04:27:53;;;;;;;3.00;1.20;;;;;;;17.25;100.00;99921.59;4806158;29;20050;-74
2022/06/09 04:30:22;;;;;;;1.20;0.73;;;;;;;17.24;100.00;99919.16;4805653;29;20051;-74
2022/06/09 04:32:53;;;;;;;2.15;0.88;;;;;;;17.51;100.00;99922.47;4797612;29;20434;-73
2022/06/09 04:35:22;;;;;;;1.00;0.85;;;;;;;17.75;100.00;99931.94;4806032;29;20047;-74
2022/06/09 04:38:02;;;;;;;1.83;0.93;;;;;;;17.73;100.00;99930.34;4801739;29;20502;-74
2022/06/09 04:40:36;;;;;;;1.00;0.90;;;;;;;17.72;100.00;99928.72;4797941;29;20047;-74
2022/06/09 04:43:06;;;;;;;1.48;1.38;;;;;;;17.64;100.00;99937.91;4798059;29;20055;-74
2022/06/09 04:45:35;;;;;;;0.93;0.73;;;;;;;17.76;100.00;99933.56;4799226;29;20062;-74
2022/06/09 04:48:03;;;;;;;1.42;1.02;;;;;;;17.97;100.00;99937.03;4806055;29;20503;-73
2022/06/09 04:50:35;;;;;;;1.27;1.10;;;;;;;18.12;100.00;99945.81;4806189;29;20422;-83
2022/06/09 04:53:07;;;;;;;1.58;0.73;;;;;;;18.49;99.85;99942.19;4778608;29;20055;-84
2022/06/09 04:55:37;;;;;;;1.33;0.90;;;;;;;18.69;97.79;99945.13;4804556;29;20054;-85
2022/06/09 04:58:06;;;;;;;1.65;1.02;;;;;;;18.95;95.69;99953.03;4795994;29;20062;-86
2022/06/09 05:00:34;;;;;;;1.75;1.05;;;;;;;19.18;92.28;99949.72;4790897;29;20063;-86
2022/06/09 05:03:03;;;;;;;1.50;0.90;;;;;;;19.37;90.71;99957.38;4798195;29;20060;-85
2022/06/09 05:05:34;;;;;;;0.90;0.80;;;;;;;19.44;88.39;99959.50;4766031;29;20135;-86
2022/06/09 05:08:03;;;;;;;0.98;0.52;;;;;;;19.48;85.12;99957.66;4801315;29;20042;-85
2022/06/09 05:10:32;;;;;;;0.40;0.40;;;;;;;19.60;83.61;99960.34;4792775;29;20073;-86
2022/06/09 05:13:01;;;;;;;1.02;0.63;;;;;;;19.76;84.08;99981.75;4794665;29;20426;-85
2022/06/09 05:15:29;;;;;;;1.65;0.60;;;;;;;19.83;83.99;99970.84;4800239;29;20058;-86
2022/06/09 05:17:58;;;;;;;0.57;0.40;;;;;;;19.76;83.51;99980.94;4792627;29;20066;-87
2022/06/09 05:20:27;;;;;;;0.80;0.80;;;;;;;19.84;83.37;99979.97;4797958;29;20407;-87
2022/06/09 05:22:55;;;;;;;0.35;0.35;;;;;;;19.94;82.37;99981.41;4805626;29;20051;-87
2022/06/09 05:25:24;;;;;;;0.70;0.50;;;;;;;20.05;80.74;99988.06;4802873;29;20050;-87
2022/06/09 05:27:52;;;;;;;0.75;0.28;;;;;;;20.09;80.63;99975.06;4790006;29;20047;-84
2022/06/09 05:30:24;;;;;;;0.85;0.55;;;;;;;20.13;80.18;99981.50;4794665;29;20503;-85
2022/06/09 05:32:52;;;;;;;1.77;0.60;;;;;;;20.20;77.83;99977.28;4805599;29;20058;-84
2022/06/09 05:35:21;;;;;;;0.30;0.30;;;;;;;20.08;81.05;99981.78;4803836;29;20047;-83
2022/06/09 05:46:10;;;;;;;1.33;0.50;;;;;;;20.17;78.67;99980.78;4804962;29;20051;-87
2022/06/09 05:48:38;;;;;;;0.50;0.50;;;;;;;20.14;76.95;99982.31;4805129;29;20483;-87
2022/06/09 05:51:06;;;;;;;0.77;0.57;;;;;;;20.33;77.41;99989.09;4804931;29;20061;-86
2022/06/09 05:53:35;;;;;;;0.75;0.45;;;;;;;20.58;74.96;99989.66;4805262;29;20043;-87
2022/06/09 05:56:06;;;;;;;0.70;0.52;;;;;;;20.70;74.65;99985.13;4805163;29;20392;-88
2022/06/09 05:58:35;;;;;;;1.75;0.40;;;;;;;20.89;73.58;99987.16;4804357;29;20406;-89
2022/06/09 06:01:08;;;;;;;1.08;0.43;;;;;;;21.01;73.23;99989.00;4804671;29;20421;-88
2022/06/09 06:03:38;;;;;;;1.13;0.60;;;;;;;20.99;73.98;99980.22;4804912;29;20443;-88
2022/06/09 06:08:53;;;;;;;1.70;0.40;;;;;;;20.98;74.19;99990.56;4799182;29;20039;-88
2022/06/09 06:11:21;;;;;;;15.45;1.67;;;;;;;21.14;73.73;99993.25;4798267;29;20054;-88
2022/06/09 06:13:50;;;;;;;3.35;0.73;;;;;;;21.13;74.16;99997.22;4804774;29;20057;-88
2022/06/09 06:16:18;;;;;;;2.85;0.63;;;;;;;21.19;72.67;100000.50;4804852;29;20039;-87
2022/06/09 06:19:04;;;;;;;1.75;0.30;;;;;;;21.34;71.58;100001.56;4804944;29;20487;-87
2022/06/09 06:21:33;;;;;;;1.73;0.40;;;;;;;21.46;71.22;100009.75;4804931;29;20058;-87
2022/06/09 06:24:03;;;;;;;5.72;0.50;;;;;;;21.60;70.87;100005.63;4804094;29;20054;-86
2022/06/09 06:26:45;;;;;;;4.45;0.75;;;;;;;21.64;70.18;100005.72;4789999;29;20395;-86
2022/06/09 06:29:17;;;;;;;1.70;0.40;;;;;;;21.64;70.80;100012.06;4802996;29;20062;-86
2022/06/09 06:31:46;;;;;;;1.63;0.47;;;;;;;21.69;70.39;100008.97;4792821;29;20063;-87
2022/06/09 06:34:23;;;;;;;0.28;0.28;;;;;;;21.74;69.87;100014.28;4803685;29;20402;-86
2022/06/09 06:36:53;;;;;;;1.55;0.73;;;;;;;21.80;68.06;100009.19;4796125;29;20059;-86
2022/06/09 06:39:32;;;;;;;0.30;0.30;;;;;;;21.85;67.16;100013.66;4801788;29;20051;-84
2022/06/09 06:42:02;;;;;;;2.50;0.63;;;;;;;21.82;65.18;100006.03;4788872;29;20066;-86
2022/06/09 06:44:35;;;;;;;0.65;0.25;;;;;;;21.99;66.84;100019.47;4796010;29;20054;-86
2022/06/09 06:47:12;;;;;;;0.13;0.13;;;;;;;21.98;65.81;100022.63;4799428;29;20046;-87
2022/06/09 06:49:40;;;;;;;0.55;0.30;;;;;;;22.07;66.35;100025.16;4790137;29;20058;-88
2022/06/09 06:52:09;;;;;;;0.88;0.30;;;;;;;22.15;66.02;100026.91;4798449;29;20107;-87
2022/06/09 06:54:36;;;;;;;0.10;0.10;;;;;;;22.19;64.31;100029.75;4798956;29;20483;-87
2022/06/09 06:57:08;;;;;;;0.22;0.13;;;;;;;22.22;65.28;100026.19;4804419;29;20051;-87
2022/06/09 06:59:36;;;;;;;0.20;0.20;;;;;;;22.22;63.96;100027.00;4805371;29;20062;-87
2022/06/09 07:02:14;;;;;;;0.98;0.30;;;;;;;22.34;62.30;100025.19;4805010;29;20070;-87
2022/06/09 07:04:45;;;;;;;0.90;0.47;;;;;;;22.27;64.84;100021.13;4795396;29;20055;-84
2022/06/09 07:07:13;;;;;;;4.97;0.68;;;;;;;22.25;65.62;100019.88;4785485;29;20503;-87
2022/06/09 07:09:41;;;;;;;3.10;0.38;;;;;;;22.25;65.46;100017.88;4796413;29;20046;-88
2022/06/09 07:12:09;;;;;;;0.60;0.50;;;;;;;22.34;64.61;100017.63;4796903;29;20043;-87
2022/06/09 07:14:37;;;;;;;1.30;0.52;;;;;;;22.28;64.81;100019.94;4793144;29;20055;-87
2022/06/09 07:17:05;;;;;;;1.17;0.55;;;;;;;22.31;64.10;100023.97;4787027;29;20055;-87
2022/06/09 07:19:33;;;;;;;2.45;0.57;;;;;;;22.24;65.86;100013.50;4788873;29;20048;-88
2022/06/09 07:22:02;;;;;;;0.93;0.70;;;;;;;22.44;65.31;100020.97;4799966;29;20055;-87
2022/06/09 07:24:30;;;;;;;2.25;0.93;;;;;;;22.22;68.70;100026.19;4799175;29;20051;-84
2022/06/09 07:26:58;;;;;;;2.05;0.80;;;;;;;22.50;67.52;100025.03;4797257;29;20496;-84
2022/06/09 07:29:26;;;;;;;1.55;0.50;;;;;;;22.42;65.38;100029.69;4799328;29;20039;-85
2022/06/09 07:31:55;;;;;;;1.35;0.75;;;;;;;22.59;66.54;100022.81;4800983;29;20545;-85
2022/06/09 07:34:23;;;;;;;0.98;0.68;;;;;;;22.67;66.05;100018.13;4796741;29;20054;-86
2022/06/09 07:36:51;;;;;;;0.55;0.40;;;;;;;22.82;65.20;100024.72;4802268;29;20051;-85
2022/06/09 07:39:19;;;;;;;0.70;0.30;;;;;;;22.91;63.40;100028.03;4796774;29;20054;-86
2022/06/09 07:41:47;;;;;;;0.38;0.38;;;;;;;22.97;63.13;100031.28;4801360;29;20597;-88
2022/06/09 07:44:16;;;;;;;0.77;0.40;;;;;;;23.08;62.80;100043.38;4796008;29;20066;-86
2022/06/09 07:46:44;;;;;;;1.10;0.28;;;;;;;23.15;59.80;100041.88;4789729;29;20421;-85
2022/06/09 07:49:12;;;;;;;2.38;0.20;;;;;;;23.09;58.61;100039.44;4787797;29;20510;-86
2022/06/09 07:51:41;;;;;;;1.00;0.73;;;;;;;23.12;60.09;100037.06;4787606;29;20403;-86
2022/06/09 07:54:14;;;;;;;0.15;0.15;;;;;;;23.06;57.78;100045.75;4788574;29;20047;-86
2022/06/09 07:56:43;;;;;;;2.10;0.32;;;;;;;23.19;56.95;100028.78;4787072;29;20055;-87
2022/06/09 07:59:11;;;;;;;0.20;0.20;;;;;;;23.20;53.17;100039.56;4788626;29;20043;-85
2022/06/09 08:01:39;;;;;;;0.10;0.10;;;;;;;23.15;55.04;100030.72;4787370;29;20503;-85
2022/06/09 08:04:07;;;;;;;0.15;0.15;;;;;;;23.20;52.21;100033.16;4788440;29;20048;-85
2022/06/09 08:06:34;;;;;;;0.10;0.10;;;;;;;23.32;54.03;100026.56;4788382;29;20488;-85
2022/06/09 08:09:03;;;;;;;0.40;0.15;;;;;;;23.33;53.35;100029.00;4788773;29;20059;-85
2022/06/09 08:11:35;;;;;;;0.38;0.30;;;;;;;23.43;54.29;100030.28;4799978;29;20073;-86
2022/06/09 08:14:05;;;;;;;0.20;0.10;;;;;;;23.51;52.73;100030.34;4806653;29;20055;-85
2022/06/09 08:16:35;;;;;;;0.20;0.20;;;;;;;23.49;55.14;100023.19;4806444;29;20055;-86
2022/06/09 08:19:03;;;;;;;0.20;0.20;;;;;;;23.53;52.52;100028.78;4806776;29;20042;-85
2022/06/09 08:21:34;;;;;;;0.45;0.30;;;;;;;23.69;52.18;100031.34;4805633;29;20059;-86
2022/06/09 08:24:21;;;;;;;0.28;0.28;;;;;;;23.60;50.81;100025.25;4795300;29;20058;-86
2022/06/09 08:26:49;;;;;;;0.10;0.10;;;;;;;23.78;51.16;100022.66;4806219;29;20051;-85
2022/06/09 08:29:24;;;;;;;1.02;0.30;;;;;;;23.96;51.65;100024.81;4796611;29;20050;-86
2022/06/09 08:31:52;;;;;;;0.13;0.10;;;;;;;24.05;50.24;100025.28;4789009;29;20503;-86
2022/06/09 08:34:23;;;;;;;0.00;0.00;;;;;;;24.14;51.64;100019.38;4786678;29;20043;-82
2022/06/09 08:36:54;;;;;;;;;;;;;;;24.36;49.24;100031.56;4793718;29;20662;-85
2022/06/09 08:39:22;;;;;;;1.00;0.10;;;;;;;24.41;48.89;100027.56;4786876;29;20306;-85
2022/06/09 08:42:08;;;;;;;0.22;0.22;;;;;;;24.40;50.08;100040.75;4792611;29;20050;-85
2022/06/09 08:44:49;;;;;;;0.20;0.20;;;;;;;24.25;48.09;100033.47;4788612;29;20499;-85
2022/06/09 08:47:40;;;;;;;2.25;0.47;;;;;;;24.46;49.94;100037.59;4794551;29;20043;-85
2022/06/09 08:50:22;;;;;;;0.17;0.10;;;;;;;24.43;51.11;100028.81;4794226;29;20059;-82
2022/06/09 08:53:08;;;;;;;0.30;0.30;;;;;;;24.64;50.67;100040.53;4794818;29;20150;-84
2022/06/09 08:55:45;;;;;;;0.10;0.10;;;;;;;24.60;49.65;100028.50;4788970;29;20664;-86
2022/06/09 08:58:18;;;;;;;1.17;0.10;;;;;;;24.51;47.13;100035.25;4793069;29;20043;-85
2022/06/09 09:01:02;;;;;;;0.20;0.20;;;;;;;24.60;49.67;100046.09;4805996;29;20051;-85
2022/06/09 09:03:36;;;;;;;4.28;0.68;;;;;;;24.82;50.48;100037.84;4790338;29;20415;-88
2022/06/09 09:06:10;;;;;;;4.88;0.55;;;;;;;24.85;49.46;100042.66;4797552;29;20051;-86
2022/06/09 09:08:38;;;;;;;0.35;0.35;;;;;;;24.86;49.36;100041.47;4803585;29;20515;-86
2022/06/09 09:11:09;;;;;;;0.17;0.17;;;;;;;24.91;48.91;100041.09;4787089;29;20046;-85
2022/06/09 09:13:59;;;;;;;0.30;0.20;;;;;;;24.79;47.16;100033.00;4786892;29;20507;-85
2022/06/09 09:16:47;;;;;;;0.52;0.30;;;;;;;24.88;47.96;100038.28;4792612;29;20054;-85
2022/06/09 09:19:44;;;;;;;0.30;0.30;;;;;;;24.93;47.44;100035.91;4786255;29;20039;-84
2022/06/09 09:22:19;;;;;;;0.35;0.30;;;;;;;24.95;46.75;100047.53;4789084;29;20055;-85
2022/06/09 09:25:00;;;;;;;0.57;0.38;;;;;;;25.04;48.62;100049.97;4786782;29;20040;-84
2022/06/09 09:27:33;;;;;;;0.08;0.08;;;;;;;24.95;47.80;100041.94;4786860;29;20043;-84
2022/06/09 09:34:38;;;;;;;0.45;0.20;;;;;;;25.19;46.06;100058.41;5063558;24;20058;-77
2022/06/09 09:37:26;;;;;;;0.40;0.30;;;;;;;25.10;47.70;100050.38;4776347;29;20051;-78
2022/06/09 09:40:00;;;;;;;0.20;0.20;;;;;;;25.00;46.69;100051.13;4790460;29;20403;-78
2022/06/09 09:42:32;;;;;;;0.70;0.20;;;;;;;25.24;48.06;100049.63;4775216;29;20051;-78
2022/06/09 09:45:09;;;;;;;0.32;0.30;;;;;;;25.30;46.99;100055.66;4772239;29;20059;-77
2022/06/09 09:47:48;;;;;;;0.30;0.30;;;;;;;25.45;45.33;100046.09;4773478;29;20048;-78
2022/06/09 09:50:21;;;;;;;0.55;0.20;;;;;;;25.56;45.76;100048.94;4774584;29;20071;-78
2022/06/09 09:53:00;;;;;;;0.80;0.20;;;;;;;25.82;45.39;100044.22;4772876;29;20067;-78
2022/06/09 09:55:37;;;;;;;0.10;0.10;;;;;;;26.03;45.08;100049.03;4776105;29;20062;-78
2022/06/09 09:58:27;;;;;;;0.30;0.30;;;;;;;26.00;43.87;100044.22;4775845;29;20051;-78
2022/06/09 10:01:03;;;;;;;0.10;0.10;;;;;;;26.36;44.30;100040.66;4780154;29;20059;-77
2022/06/09 10:09:47;;;;;;;0.82;0.65;;;;;;;26.30;42.05;100023.41;4772520;29;20055;-78
2022/06/09 10:12:34;;;;;;;0.22;0.22;;;;;;;25.99;43.86;100025.81;4772570;29;20051;-77
2022/06/09 10:15:11;;;;;;;0.28;0.25;;;;;;;25.76;43.59;100023.41;4784065;29;20063;-78
2022/06/09 10:18:09;;;;;;;0.20;0.20;;;;;;;25.91;44.54;100021.41;4785657;29;20043;-78
2022/06/09 10:21:10;;;;;;;0.52;0.40;;;;;;;26.36;43.58;100032.22;4786377;29;20039;-79
2022/06/09 10:23:53;;;;;;;0.55;0.28;;;;;;;26.45;43.58;100031.00;4785508;29;20127;-79
2022/06/09 10:26:31;;;;;;;0.20;0.20;;;;;;;26.41;43.00;100033.81;4785768;29;20059;-80
2022/06/09 10:29:09;;;;;;;0.35;0.32;;;;;;;26.42;43.44;100038.22;4780272;29;20071;-78
2022/06/09 10:31:55;;;;;;;0.20;0.20;;;;;;;26.64;43.66;100026.97;4776823;29;20056;-78
2022/06/09 10:35:11;;;;;;;0.30;0.30;;;;;;;26.50;42.62;100030.59;4775750;29;20055;-79
2022/06/09 10:37:47;;;;;;;0.10;0.10;;;;;;;26.66;42.89;100036.59;4734190;29;20090;-79
2022/06/09 10:40:27;;;;;;;1.58;0.32;;;;;;;26.80;43.85;100044.19;4781351;29;20052;-79
2022/06/09 10:43:13;;;;;;;0.50;0.30;;;;;;;27.01;43.03;100038.91;4784444;29;20059;-78
2022/06/09 10:45:50;;;;;;;0.20;0.20;;;;;;;27.07;42.83;100038.09;4787283;29;21203;-78
2022/06/09 10:57:39;;;;;;;0.30;0.30;;;;;;;26.08;44.15;100024.59;4778305;29;20051;-78
2022/06/09 11:00:13;;;;;;;0.82;0.30;;;;;;;26.20;44.37;100021.38;4798123;29;20487;-79
2022/06/09 11:02:46;;;;;;;1.13;0.30;;;;;;;26.20;46.37;100027.00;4777463;29;20040;-78
2022/06/09 11:05:18;;;;;;;0.20;0.20;;;;;;;26.10;44.53;100022.22;4784748;29;20066;-78
2022/06/09 11:08:00;;;;;;;0.30;0.20;;;;;;;25.93;44.30;100030.22;4781139;29;20055;-77
2022/06/09 11:10:37;;;;;;;0.20;0.20;;;;;;;26.01;44.73;100031.03;4788094;29;20058;-77
2022/06/09 11:13:26;;;;;;;0.70;0.45;;;;;;;25.86;45.09;100022.59;4781840;29;20070;-78
2022/06/09 11:16:12;;;;;;;0.45;0.30;;;;;;;26.17;44.72;100027.81;4778323;29;20060;-78
2022/06/09 11:18:50;;;;;;;1.08;0.47;;;;;;;26.38;44.46;100023.41;4783573;29;20411;-78
2022/06/09 11:21:41;;;;;;;0.52;0.28;;;;;;;26.34;44.08;100025.44;4785617;29;20043;-77
2022/06/09 11:24:11;;;;;;;0.30;0.30;;;;;;;26.48;43.63;100014.16;4781692;29;20078;-77
2022/06/09 11:26:50;;;;;;;0.50;0.30;;;;;;;26.51;42.69;100018.16;4782868;29;20055;-77
2022/06/09 11:29:46;;;;;;;1.45;0.50;;;;;;;26.12;44.08;100014.19;4785765;29;20055;-78
2022/06/09 11:32:23;;;;;;;0.45;0.40;;;;;;;25.86;44.29;100014.19;4782624;29;20047;-78
2022/06/09 11:35:03;;;;;;;1.40;0.38;;;;;;;25.90;43.52;100009.38;4783330;29;20510;-78
2022/06/09 11:37:46;;;;;;;0.25;0.25;;;;;;;26.11;44.16;100007.78;4786392;29;20048;-78
2022/06/09 11:40:14;;;;;;;0.40;0.40;;;;;;;26.30;44.08;100017.81;4783078;29;20051;-78
2022/06/09 11:42:55;;;;;;;0.10;0.10;;;;;;;26.48;43.17;100010.59;4787010;29;20059;-78
2022/06/09 11:45:29;;;;;;;0.70;0.43;;;;;;;26.48;44.57;100005.75;4783814;29;20511;-78
2022/06/09 11:48:00;;;;;;;0.15;0.15;;;;;;;26.35;42.63;100008.19;4785299;29;20499;-79
2022/06/09 11:50:37;;;;;;;0.38;0.35;;;;;;;26.38;42.07;100003.75;4781965;29;20051;-79
2022/06/09 11:53:05;;;;;;;1.45;0.45;;;;;;;26.24;43.88;100010.22;4786336;29;20066;-78
2022/06/09 11:55:58;;;;;;;1.55;0.30;;;;;;;26.46;43.29;100008.16;4786102;29;20043;-77
2022/06/09 11:58:38;;;;;;;0.50;0.43;;;;;;;26.43;42.66;100006.97;4786570;29;20504;-77
2022/06/09 12:01:30;;;;;;;1.40;0.38;;;;;;;26.54;44.79;100004.13;4778445;29;20443;-77
2022/06/09 12:04:17;;;;;;;0.50;0.40;;;;;;;26.41;43.78;99997.34;4782452;29;20059;-75
2022/06/09 12:07:18;;;;;;;0.85;0.50;;;;;;;26.53;44.04;100002.53;4781107;29;20055;-74
2022/06/09 12:10:31;;;;;;;0.30;0.30;;;;;;;26.44;44.51;99990.94;4786520;29;20411;-75
2022/06/09 12:13:25;;;;;;;0.50;0.50;;;;;;;26.27;42.80;100004.59;4787248;29;20067;-75
2022/06/09 12:16:20;;;;;;;1.65;0.60;;;;;;;26.43;43.06;100000.56;4783806;29;20050;-75
2022/06/09 12:18:58;;;;;;;;;;;;;;;26.41;43.93;100006.59;4785327;29;20502;-73
2022/06/09 12:21:30;;;;;;;0.52;0.50;;;;;;;26.39;44.64;100006.16;4785320;29;19933;-75
2022/06/09 12:24:48;;;;;;;0.43;0.40;;;;;;;26.34;43.53;100005.78;4949834;24;20053;-76
2022/06/09 12:27:41;;;;;;;1.20;0.20;;;;;;;26.39;44.21;99994.16;4766003;29;20051;-77
2022/06/09 12:30:15;;;;;;;1.27;0.50;;;;;;;26.63;43.34;99997.31;4777439;30;20056;-76
2022/06/09 12:33:24;;;;;;;0.40;0.40;;;;;;;27.04;42.75;99998.78;4767786;30;20077;-77